sensor_id;sensor_type;location;lat;lon;timestamp;pressure;altitude;pressure_sealevel;temperature;humidity
24620;BME280;12763;55.802;37.404;2024-03-22T00:00:47;99901.00;;;4.91;49.96
24620;BME280;12763;55.802;37.404;2024-03-22T00:03:13;99896.41;;;4.75;51.17
24620;BME280;12763;55.802;37.404;2024-03-22T00:05:39;99905.28;;;4.94;50.09
24620;BME280;12763;55.802;37.404;2024-03-22T00:08:05;99899.81;;;4.94;49.70
24620;BME280;12763;55.802;37.404;2024-03-22T00:10:30;99901.66;;;5.01;49.52
24620;BME280;12763;55.802;37.404;2024-03-22T00:12:56;99896.00;;;5.03;50.39
24620;BME280;12763;55.802;37.404;2024-03-22T00:15:22;99891.94;;;4.91;50.82
24620;BME280;12763;55.802;37.404;2024-03-22T00:17:48;99890.59;;;4.79;51.03
24620;BME280;12763;55.802;37.404;2024-03-22T00:20:14;99882.88;;;4.90;50.95
24620;BME280;12763;55.802;37.404;2024-03-22T00:22:40;99879.13;;;4.91;50.54
24620;BME280;12763;55.802;37.404;2024-03-22T00:25:06;99897.44;;;4.74;51.52
24620;BME280;12763;55.802;37.404;2024-03-22T00:27:32;99894.69;;;4.91;50.60
24620;BME280;12763;55.802;37.404;2024-03-22T00:29:58;99904.59;;;4.84;51.05
24620;BME280;12763;55.802;37.404;2024-03-22T00:32:23;99889.88;;;5.01;50.94
24620;BME280;12763;55.802;37.404;2024-03-22T00:34:50;99887.47;;;5.06;50.07
24620;BME280;12763;55.802;37.404;2024-03-22T00:37:15;99888.19;;;5.00;50.24
24620;BME280;12763;55.802;37.404;2024-03-22T00:39:42;99888.19;;;4.84;51.94
24620;BME280;12763;55.802;37.404;2024-03-22T00:42:07;99891.28;;;4.89;51.83
24620;BME280;12763;55.802;37.404;2024-03-22T00:44:33;99888.91;;;4.78;52.16
24620;BME280;12763;55.802;37.404;2024-03-22T00:46:59;99893.16;;;4.88;51.84
24620;BME280;12763;55.802;37.404;2024-03-22T00:49:25;99894.72;;;4.66;52.65
24620;BME280;12763;55.802;37.404;2024-03-22T00:51:51;99892.16;;;4.57;53.50
24620;BME280;12763;55.802;37.404;2024-03-22T00:54:17;99890.44;;;4.72;52.37
24620;BME280;12763;55.802;37.404;2024-03-22T00:56:43;99883.31;;;4.39;54.35
24620;BME280;12763;55.802;37.404;2024-03-22T00:59:09;99883.97;;;4.49;54.07
24620;BME280;12763;55.802;37.404;2024-03-22T01:01:35;99887.72;;;4.48;54.35
24620;BME280;12763;55.802;37.404;2024-03-22T01:04:01;99875.94;;;4.39;55.22
24620;BME280;12763;55.802;37.404;2024-03-22T01:06:27;99882.09;;;4.41;55.34
24620;BME280;12763;55.802;37.404;2024-03-22T01:08:53;99879.53;;;4.40;55.31
24620;BME280;12763;55.802;37.404;2024-03-22T01:11:19;99875.59;;;4.42;55.22
24620;BME280;12763;55.802;37.404;2024-03-22T01:13:45;99872.03;;;4.50;55.22
24620;BME280;12763;55.802;37.404;2024-03-22T01:16:11;99872.88;;;4.58;54.62
24620;BME280;12763;55.802;37.404;2024-03-22T01:18:37;99872.19;;;4.48;55.16
24620;BME280;12763;55.802;37.404;2024-03-22T01:21:03;99859.72;;;4.38;55.68
24620;BME280;12763;55.802;37.404;2024-03-22T01:23:30;99861.25;;;4.32;56.00
24620;BME280;12763;55.802;37.404;2024-03-22T01:25:56;99855.63;;;4.26;56.66
24620;BME280;12763;55.802;37.404;2024-03-22T01:28:23;99867.41;;;4.18;56.87
24620;BME280;12763;55.802;37.404;2024-03-22T01:30:48;99862.28;;;4.23;56.51
24620;BME280;12763;55.802;37.404;2024-03-22T01:33:14;99855.94;;;4.14;57.29
24620;BME280;12763;55.802;37.404;2024-03-22T01:35:40;99858.19;;;4.11;57.29
24620;BME280;12763;55.802;37.404;2024-03-22T01:38:06;99855.59;;;4.01;58.04
24620;BME280;12763;55.802;37.404;2024-03-22T01:40:32;99850.66;;;3.97;58.50
24620;BME280;12763;55.802;37.404;2024-03-22T01:42:59;99843.16;;;3.91;59.25
24620;BME280;12763;55.802;37.404;2024-03-22T01:45:25;99847.22;;;3.87;58.99
24620;BME280;12763;55.802;37.404;2024-03-22T01:47:52;99848.25;;;3.86;60.17
24620;BME280;12763;55.802;37.404;2024-03-22T01:50:21;99841.94;;;3.85;59.33
24620;BME280;12763;55.802;37.404;2024-03-22T01:52:47;99842.81;;;3.86;58.80
24620;BME280;12763;55.802;37.404;2024-03-22T01:55:13;99841.09;;;3.85;59.17
24620;BME280;12763;55.802;37.404;2024-03-22T01:57:40;99840.09;;;3.94;58.53
24620;BME280;12763;55.802;37.404;2024-03-22T02:00:09;99841.63;;;3.88;59.02
24620;BME280;12763;55.802;37.404;2024-03-22T02:02:40;99851.34;;;3.91;58.62
24620;BME280;12763;55.802;37.404;2024-03-22T02:05:15;99840.94;;;3.86;58.51
24620;BME280;12763;55.802;37.404;2024-03-22T02:07:42;99845.03;;;3.90;58.83
24620;BME280;12763;55.802;37.404;2024-03-22T02:10:09;99831.53;;;3.81;59.25
24620;BME280;12763;55.802;37.404;2024-03-22T02:12:39;99823.69;;;3.78;59.23
24620;BME280;12763;55.802;37.404;2024-03-22T02:15:08;99826.75;;;3.75;59.61
24620;BME280;12763;55.802;37.404;2024-03-22T02:17:35;99830.81;;;3.63;59.93
24620;BME280;12763;55.802;37.404;2024-03-22T02:20:02;99831.16;;;3.68;60.14
24620;BME280;12763;55.802;37.404;2024-03-22T02:22:31;99833.56;;;3.71;59.90
24620;BME280;12763;55.802;37.404;2024-03-22T02:24:57;99821.28;;;3.67;60.12
24620;BME280;12763;55.802;37.404;2024-03-22T02:27:24;99824.50;;;3.62;61.32
24620;BME280;12763;55.802;37.404;2024-03-22T02:29:50;99821.94;;;3.52;61.59
24620;BME280;12763;55.802;37.404;2024-03-22T02:32:16;99818.53;;;3.50;61.65
24620;BME280;12763;55.802;37.404;2024-03-22T02:34:43;99829.91;;;3.46;62.28
24620;BME280;12763;55.802;37.404;2024-03-22T02:37:08;99825.31;;;3.46;62.82
24620;BME280;12763;55.802;37.404;2024-03-22T02:39:34;99828.72;;;3.40;62.90
24620;BME280;12763;55.802;37.404;2024-03-22T02:42:00;99815.94;;;3.41;63.37
24620;BME280;12763;55.802;37.404;2024-03-22T02:44:26;99816.25;;;3.38;63.22
24620;BME280;12763;55.802;37.404;2024-03-22T02:46:52;99812.50;;;3.31;64.45
24620;BME280;12763;55.802;37.404;2024-03-22T02:49:18;99806.34;;;3.29;64.45
24620;BME280;12763;55.802;37.404;2024-03-22T02:51:44;99787.06;;;3.22;65.18
24620;BME280;12763;55.802;37.404;2024-03-22T02:54:10;99804.13;;;3.24;65.71
24620;BME280;12763;55.802;37.404;2024-03-22T02:56:36;99802.56;;;3.14;66.16
24620;BME280;12763;55.802;37.404;2024-03-22T02:59:02;99809.84;;;3.05;67.34
24620;BME280;12763;55.802;37.404;2024-03-22T03:01:27;99805.38;;;2.96;67.59
24620;BME280;12763;55.802;37.404;2024-03-22T03:03:53;99800.38;;;2.83;68.79
24620;BME280;12763;55.802;37.404;2024-03-22T03:06:19;99799.97;;;2.70;69.50
24620;BME280;12763;55.802;37.404;2024-03-22T03:08:45;99801.84;;;2.70;69.42
24620;BME280;12763;55.802;37.404;2024-03-22T03:11:13;99800.66;;;2.72;69.89
24620;BME280;12763;55.802;37.404;2024-03-22T03:13:39;99803.19;;;2.66;71.11
24620;BME280;12763;55.802;37.404;2024-03-22T03:16:06;99793.66;;;2.70;70.83
24620;BME280;12763;55.802;37.404;2024-03-22T03:18:32;99796.13;;;2.55;72.18
24620;BME280;12763;55.802;37.404;2024-03-22T03:20:58;99790.00;;;2.53;72.68
24620;BME280;12763;55.802;37.404;2024-03-22T03:23:23;99787.75;;;2.49;72.79
24620;BME280;12763;55.802;37.404;2024-03-22T03:25:49;99785.88;;;2.49;73.50
24620;BME280;12763;55.802;37.404;2024-03-22T03:28:15;99785.38;;;2.46;73.78
24620;BME280;12763;55.802;37.404;2024-03-22T03:30:41;99782.38;;;2.57;73.43
24620;BME280;12763;55.802;37.404;2024-03-22T03:33:08;99788.50;;;2.59;73.59
24620;BME280;12763;55.802;37.404;2024-03-22T03:35:33;99781.00;;;2.61;73.52
24620;BME280;12763;55.802;37.404;2024-03-22T03:37:59;99776.28;;;2.71;73.54
24620;BME280;12763;55.802;37.404;2024-03-22T03:40:25;99774.41;;;2.71;73.00
24620;BME280;12763;55.802;37.404;2024-03-22T03:42:53;99776.69;;;2.76;73.00
24620;BME280;12763;55.802;37.404;2024-03-22T03:45:19;99776.13;;;2.72;73.01
24620;BME280;12763;55.802;37.404;2024-03-22T03:47:45;99775.28;;;2.72;73.50
24620;BME280;12763;55.802;37.404;2024-03-22T03:50:11;99772.91;;;2.77;73.65
24620;BME280;12763;55.802;37.404;2024-03-22T03:52:38;99765.75;;;2.68;74.22
24620;BME280;12763;55.802;37.404;2024-03-22T03:55:04;99766.06;;;2.65;74.93
24620;BME280;12763;55.802;37.404;2024-03-22T03:57:30;99769.63;;;2.65;75.38
24620;BME280;12763;55.802;37.404;2024-03-22T03:59:56;99768.50;;;2.76;74.46
24620;BME280;12763;55.802;37.404;2024-03-22T04:02:22;99772.91;;;2.77;74.99
24620;BME280;12763;55.802;37.404;2024-03-22T04:04:47;99770.91;;;2.79;73.81
24620;BME280;12763;55.802;37.404;2024-03-22T04:07:13;99772.63;;;2.54;76.05
24620;BME280;12763;55.802;37.404;2024-03-22T04:09:39;99777.53;;;2.43;77.31
24620;BME280;12763;55.802;37.404;2024-03-22T04:12:05;99769.16;;;2.70;76.21
24620;BME280;12763;55.802;37.404;2024-03-22T04:14:31;99766.91;;;3.15;74.69
24620;BME280;12763;55.802;37.404;2024-03-22T04:16:57;99768.91;;;3.55;70.57
24620;BME280;12763;55.802;37.404;2024-03-22T04:19:23;99761.06;;;3.60;70.45
24620;BME280;12763;55.802;37.404;2024-03-22T04:21:49;99763.78;;;3.68;69.37
24620;BME280;12763;55.802;37.404;2024-03-22T04:24:16;99765.84;;;3.74;69.41
24620;BME280;12763;55.802;37.404;2024-03-22T04:26:42;99766.84;;;3.81;68.50
24620;BME280;12763;55.802;37.404;2024-03-22T04:29:08;99767.56;;;3.91;67.86
24620;BME280;12763;55.802;37.404;2024-03-22T04:31:33;99769.25;;;3.92;68.21
24620;BME280;12763;55.802;37.404;2024-03-22T04:33:59;99770.81;;;3.95;68.13
24620;BME280;12763;55.802;37.404;2024-03-22T04:36:25;99766.69;;;3.99;68.49
24620;BME280;12763;55.802;37.404;2024-03-22T04:38:51;99761.41;;;4.05;67.63
24620;BME280;12763;55.802;37.404;2024-03-22T04:41:17;99765.69;;;4.08;67.29
24620;BME280;12763;55.802;37.404;2024-03-22T04:43:43;99762.25;;;4.14;67.33
24620;BME280;12763;55.802;37.404;2024-03-22T04:46:09;99758.00;;;4.20;67.52
24620;BME280;12763;55.802;37.404;2024-03-22T04:48:35;99766.34;;;4.18;67.14
24620;BME280;12763;55.802;37.404;2024-03-22T04:51:01;99757.63;;;4.23;67.80
24620;BME280;12763;55.802;37.404;2024-03-22T04:53:27;99763.59;;;4.26;67.31
24620;BME280;12763;55.802;37.404;2024-03-22T04:55:53;99754.03;;;4.30;67.34
24620;BME280;12763;55.802;37.404;2024-03-22T04:58:22;99764.28;;;4.20;68.29
24620;BME280;12763;55.802;37.404;2024-03-22T05:00:49;99754.06;;;4.22;66.91
24620;BME280;12763;55.802;37.404;2024-03-22T05:03:16;99764.97;;;4.30;67.25
24620;BME280;12763;55.802;37.404;2024-03-22T05:05:42;99749.56;;;4.37;66.87
24620;BME280;12763;55.802;37.404;2024-03-22T05:08:09;99751.78;;;4.34;67.33
24620;BME280;12763;55.802;37.404;2024-03-22T05:10:36;99747.16;;;4.42;67.06
24620;BME280;12763;55.802;37.404;2024-03-22T05:13:02;99751.59;;;4.51;66.79
24620;BME280;12763;55.802;37.404;2024-03-22T05:15:28;99750.25;;;4.47;67.42
24620;BME280;12763;55.802;37.404;2024-03-22T05:17:57;99762.47;;;4.67;66.46
24620;BME280;12763;55.802;37.404;2024-03-22T05:20:24;99761.06;;;4.80;65.35
24620;BME280;12763;55.802;37.404;2024-03-22T05:22:51;99754.75;;;4.79;65.46
24620;BME280;12763;55.802;37.404;2024-03-22T05:25:17;99745.88;;;4.77;65.67
24620;BME280;12763;55.802;37.404;2024-03-22T05:27:44;99748.38;;;4.87;65.51
24620;BME280;12763;55.802;37.404;2024-03-22T05:30:12;99747.88;;;4.91;65.98
24620;BME280;12763;55.802;37.404;2024-03-22T05:32:39;99728.91;;;4.90;66.31
24620;BME280;12763;55.802;37.404;2024-03-22T05:35:06;99731.31;;;4.85;66.01
24620;BME280;12763;55.802;37.404;2024-03-22T05:37:32;99731.22;;;5.01;66.14
24620;BME280;12763;55.802;37.404;2024-03-22T05:40:00;99729.16;;;5.11;65.02
24620;BME280;12763;55.802;37.404;2024-03-22T05:42:26;99728.09;;;5.12;64.78
24620;BME280;12763;55.802;37.404;2024-03-22T05:44:52;99730.16;;;5.10;65.79
24620;BME280;12763;55.802;37.404;2024-03-22T05:47:19;99724.00;;;5.16;65.83
24620;BME280;12763;55.802;37.404;2024-03-22T05:49:45;99723.63;;;5.19;65.23
24620;BME280;12763;55.802;37.404;2024-03-22T05:52:11;99726.66;;;5.24;65.64
24620;BME280;12763;55.802;37.404;2024-03-22T05:54:38;99723.16;;;5.38;64.87
24620;BME280;12763;55.802;37.404;2024-03-22T05:57:04;99719.88;;;5.43;63.56
24620;BME280;12763;55.802;37.404;2024-03-22T05:59:31;99722.06;;;5.47;63.77
24620;BME280;12763;55.802;37.404;2024-03-22T06:01:57;99720.19;;;5.48;64.24
24620;BME280;12763;55.802;37.404;2024-03-22T06:04:23;99717.25;;;5.72;63.31
24620;BME280;12763;55.802;37.404;2024-03-22T06:06:49;99715.38;;;5.72;63.21
24620;BME280;12763;55.802;37.404;2024-03-22T06:09:16;99716.88;;;5.75;63.00
24620;BME280;12763;55.802;37.404;2024-03-22T06:11:52;99708.31;;;6.01;62.42
24620;BME280;12763;55.802;37.404;2024-03-22T06:14:18;99708.56;;;5.91;62.79
24620;BME280;12763;55.802;37.404;2024-03-22T06:16:44;99697.56;;;5.99;62.22
24620;BME280;12763;55.802;37.404;2024-03-22T06:19:10;99700.38;;;6.06;61.92
24620;BME280;12763;55.802;37.404;2024-03-22T06:21:36;99693.38;;;6.03;62.74
24620;BME280;12763;55.802;37.404;2024-03-22T06:24:02;99691.44;;;6.12;61.91
24620;BME280;12763;55.802;37.404;2024-03-22T06:26:29;99695.03;;;6.12;62.44
24620;BME280;12763;55.802;37.404;2024-03-22T06:28:55;99691.63;;;6.25;62.07
24620;BME280;12763;55.802;37.404;2024-03-22T06:31:21;99692.22;;;6.35;61.70
24620;BME280;12763;55.802;37.404;2024-03-22T06:33:47;99694.03;;;6.57;60.60
24620;BME280;12763;55.802;37.404;2024-03-22T06:36:12;99690.81;;;6.68;60.10
24620;BME280;12763;55.802;37.404;2024-03-22T06:38:39;99678.78;;;6.69;59.62
24620;BME280;12763;55.802;37.404;2024-03-22T06:41:05;99684.03;;;6.85;59.61
24620;BME280;12763;55.802;37.404;2024-03-22T06:43:31;99666.47;;;6.80;59.87
24620;BME280;12763;55.802;37.404;2024-03-22T06:45:57;99674.13;;;6.84;59.68
24620;BME280;12763;55.802;37.404;2024-03-22T06:48:23;99672.97;;;6.93;59.19
24620;BME280;12763;55.802;37.404;2024-03-22T06:50:48;99682.41;;;7.05;58.72
24620;BME280;12763;55.802;37.404;2024-03-22T06:53:14;99680.19;;;7.16;58.61
24620;BME280;12763;55.802;37.404;2024-03-22T06:55:40;99673.69;;;7.17;58.35
24620;BME280;12763;55.802;37.404;2024-03-22T06:58:06;99683.88;;;7.23;58.12
24620;BME280;12763;55.802;37.404;2024-03-22T07:00:32;99679.28;;;7.08;58.54
24620;BME280;12763;55.802;37.404;2024-03-22T07:03:02;99677.34;;;7.24;58.00
24620;BME280;12763;55.802;37.404;2024-03-22T07:05:28;99677.00;;;7.12;58.71
24620;BME280;12763;55.802;37.404;2024-03-22T07:07:55;99665.41;;;7.31;58.41
24620;BME280;12763;55.802;37.404;2024-03-22T07:10:23;99668.06;;;7.46;57.93
24620;BME280;12763;55.802;37.404;2024-03-22T07:12:54;99664.41;;;7.60;57.50
24620;BME280;12763;55.802;37.404;2024-03-22T07:15:22;99663.88;;;7.92;56.76
24620;BME280;12763;55.802;37.404;2024-03-22T07:17:49;99661.22;;;8.05;55.70
24620;BME280;12763;55.802;37.404;2024-03-22T07:20:14;99661.63;;;8.02;55.67
24620;BME280;12763;55.802;37.404;2024-03-22T07:22:41;99662.25;;;7.98;55.96
24620;BME280;12763;55.802;37.404;2024-03-22T07:25:07;99659.28;;;7.99;55.70
24620;BME280;12763;55.802;37.404;2024-03-22T07:27:36;99656.34;;;8.01;55.25
24620;BME280;12763;55.802;37.404;2024-03-22T07:30:02;99657.97;;;8.23;54.63
24620;BME280;12763;55.802;37.404;2024-03-22T07:32:30;99653.31;;;8.45;54.52
24620;BME280;12763;55.802;37.404;2024-03-22T07:34:56;99649.59;;;8.59;53.93
24620;BME280;12763;55.802;37.404;2024-03-22T07:37:22;99649.72;;;8.51;53.27
24620;BME280;12763;55.802;37.404;2024-03-22T07:39:48;99638.53;;;8.52;53.22
24620;BME280;12763;55.802;37.404;2024-03-22T07:42:14;99634.41;;;8.69;52.88
24620;BME280;12763;55.802;37.404;2024-03-22T07:44:40;99628.75;;;8.91;52.59
24620;BME280;12763;55.802;37.404;2024-03-22T07:47:06;99633.00;;;8.93;52.71
24620;BME280;12763;55.802;37.404;2024-03-22T07:49:32;99626.03;;;8.97;51.88
24620;BME280;12763;55.802;37.404;2024-03-22T07:52:02;99615.81;;;8.84;50.88
24620;BME280;12763;55.802;37.404;2024-03-22T07:54:29;99620.78;;;8.55;50.57
24620;BME280;12763;55.802;37.404;2024-03-22T07:56:55;99613.28;;;8.83;50.12
24620;BME280;12763;55.802;37.404;2024-03-22T07:59:21;99618.06;;;8.68;49.61
24620;BME280;12763;55.802;37.404;2024-03-22T08:02:06;99605.03;;;8.83;48.11
24620;BME280;12763;55.802;37.404;2024-03-22T08:04:32;99602.34;;;9.09;48.62
24620;BME280;12763;55.802;37.404;2024-03-22T08:06:57;99586.75;;;9.36;48.01
24620;BME280;12763;55.802;37.404;2024-03-22T08:09:23;99581.88;;;9.64;47.64
24620;BME280;12763;55.802;37.404;2024-03-22T08:11:50;99574.50;;;9.58;46.72
24620;BME280;12763;55.802;37.404;2024-03-22T08:14:15;99585.84;;;9.22;46.64
24620;BME280;12763;55.802;37.404;2024-03-22T08:16:42;99583.28;;;8.95;47.11
24620;BME280;12763;55.802;37.404;2024-03-22T08:19:08;99576.91;;;8.94;46.90
24620;BME280;12763;55.802;37.404;2024-03-22T08:21:34;99567.66;;;9.21;46.66
24620;BME280;12763;55.802;37.404;2024-03-22T08:24:00;99567.63;;;9.02;45.99
24620;BME280;12763;55.802;37.404;2024-03-22T08:26:26;99559.78;;;9.05;45.94
24620;BME280;12763;55.802;37.404;2024-03-22T08:28:52;99550.91;;;9.10;45.50
24620;BME280;12763;55.802;37.404;2024-03-22T08:31:18;99550.69;;;9.05;45.69
24620;BME280;12763;55.802;37.404;2024-03-22T08:33:47;99534.22;;;9.37;45.56
24620;BME280;12763;55.802;37.404;2024-03-22T08:36:13;99537.59;;;9.33;45.26
24620;BME280;12763;55.802;37.404;2024-03-22T08:38:39;99535.25;;;9.23;45.13
24620;BME280;12763;55.802;37.404;2024-03-22T08:41:05;99535.03;;;9.31;44.59
24620;BME280;12763;55.802;37.404;2024-03-22T08:43:31;99528.47;;;9.45;45.03
24620;BME280;12763;55.802;37.404;2024-03-22T08:45:56;99527.41;;;9.33;44.65
24620;BME280;12763;55.802;37.404;2024-03-22T08:48:23;99532.94;;;9.47;44.68
24620;BME280;12763;55.802;37.404;2024-03-22T08:50:49;99524.03;;;9.44;45.11
24620;BME280;12763;55.802;37.404;2024-03-22T08:53:16;99525.06;;;9.89;44.00
24620;BME280;12763;55.802;37.404;2024-03-22T08:55:46;99525.25;;;10.08;43.29
24620;BME280;12763;55.802;37.404;2024-03-22T08:58:15;99520.75;;;10.26;42.96
24620;BME280;12763;55.802;37.404;2024-03-22T09:00:43;99516.75;;;10.09;43.04
24620;BME280;12763;55.802;37.404;2024-03-22T09:03:09;99524.03;;;9.71;43.06
24620;BME280;12763;55.802;37.404;2024-03-22T09:05:35;99507.50;;;9.77;43.04
24620;BME280;12763;55.802;37.404;2024-03-22T09:08:02;99509.19;;;9.72;42.51
24620;BME280;12763;55.802;37.404;2024-03-22T09:10:30;99506.22;;;9.54;41.78
24620;BME280;12763;55.802;37.404;2024-03-22T09:12:55;99508.50;;;10.16;41.57
24620;BME280;12763;55.802;37.404;2024-03-22T09:15:21;99501.03;;;10.23;41.31
24620;BME280;12763;55.802;37.404;2024-03-22T09:17:48;99500.19;;;10.22;40.94
24620;BME280;12763;55.802;37.404;2024-03-22T09:20:14;99500.22;;;10.09;41.04
24620;BME280;12763;55.802;37.404;2024-03-22T09:22:40;99501.91;;;9.97;40.79
24620;BME280;12763;55.802;37.404;2024-03-22T09:25:06;99496.00;;;10.13;41.00
24620;BME280;12763;55.802;37.404;2024-03-22T09:27:32;99501.59;;;10.44;40.11
24620;BME280;12763;55.802;37.404;2024-03-22T09:29:58;99495.88;;;10.39;40.27
24620;BME280;12763;55.802;37.404;2024-03-22T09:32:24;99503.81;;;10.67;40.39
24620;BME280;12763;55.802;37.404;2024-03-22T09:34:52;99498.72;;;10.71;39.79
24620;BME280;12763;55.802;37.404;2024-03-22T09:37:18;99495.78;;;10.97;38.98
24620;BME280;12763;55.802;37.404;2024-03-22T09:39:44;99490.66;;;11.07;39.01
24620;BME280;12763;55.802;37.404;2024-03-22T09:42:15;99489.53;;;11.14;37.12
24620;BME280;12763;55.802;37.404;2024-03-22T09:44:47;99480.06;;;11.29;37.73
24620;BME280;12763;55.802;37.404;2024-03-22T09:47:16;99486.47;;;11.78;37.26
24620;BME280;12763;55.802;37.404;2024-03-22T09:49:43;99489.22;;;11.97;37.18
24620;BME280;12763;55.802;37.404;2024-03-22T09:52:13;99491.72;;;12.23;37.18
24620;BME280;12763;55.802;37.404;2024-03-22T09:54:43;99476.75;;;12.78;36.28
24620;BME280;12763;55.802;37.404;2024-03-22T09:57:13;99478.72;;;12.89;36.56
24620;BME280;12763;55.802;37.404;2024-03-22T09:59:40;99471.59;;;13.12;35.77
24620;BME280;12763;55.802;37.404;2024-03-22T10:02:09;99473.44;;;13.00;35.89
24620;BME280;12763;55.802;37.404;2024-03-22T10:04:36;99478.41;;;12.79;36.72
24620;BME280;12763;55.802;37.404;2024-03-22T10:07:02;99472.81;;;12.86;35.90
24620;BME280;12763;55.802;37.404;2024-03-22T10:09:30;99465.84;;;13.25;36.06
24620;BME280;12763;55.802;37.404;2024-03-22T10:11:56;99457.91;;;13.40;35.89
24620;BME280;12763;55.802;37.404;2024-03-22T10:14:23;99456.38;;;13.79;35.44
24620;BME280;12763;55.802;37.404;2024-03-22T10:16:53;99447.19;;;14.13;34.96
24620;BME280;12763;55.802;37.404;2024-03-22T10:19:20;99438.13;;;14.69;34.53
24620;BME280;12763;55.802;37.404;2024-03-22T10:22:00;99445.41;;;13.72;34.45
24620;BME280;12763;55.802;37.404;2024-03-22T10:24:26;99438.53;;;13.75;35.13
24620;BME280;12763;55.802;37.404;2024-03-22T10:26:52;99445.00;;;14.38;34.71
24620;BME280;12763;55.802;37.404;2024-03-22T10:29:18;99435.97;;;14.59;35.44
24620;BME280;12763;55.802;37.404;2024-03-22T10:31:46;99427.41;;;14.89;34.80
24620;BME280;12763;55.802;37.404;2024-03-22T10:34:14;99424.44;;;15.41;34.37
24620;BME280;12763;55.802;37.404;2024-03-22T10:36:41;99415.59;;;14.82;33.86
24620;BME280;12763;55.802;37.404;2024-03-22T10:39:07;99412.06;;;14.87;34.23
24620;BME280;12763;55.802;37.404;2024-03-22T10:41:34;99414.28;;;15.46;33.67
24620;BME280;12763;55.802;37.404;2024-03-22T10:44:00;99416.91;;;15.24;33.04
24620;BME280;12763;55.802;37.404;2024-03-22T10:46:30;99405.47;;;15.38;33.31
24620;BME280;12763;55.802;37.404;2024-03-22T10:48:57;99398.56;;;16.33;32.90
24620;BME280;12763;55.802;37.404;2024-03-22T10:51:24;99393.72;;;16.94;32.16
24620;BME280;12763;55.802;37.404;2024-03-22T10:53:53;99378.56;;;16.85;31.93
24620;BME280;12763;55.802;37.404;2024-03-22T10:56:23;99385.13;;;16.74;31.78
24620;BME280;12763;55.802;37.404;2024-03-22T10:58:50;99389.69;;;17.43;31.33
24620;BME280;12763;55.802;37.404;2024-03-22T11:01:25;99373.41;;;18.09;29.79
24620;BME280;12763;55.802;37.404;2024-03-22T11:04:02;99375.09;;;17.63;30.66
24620;BME280;12763;55.802;37.404;2024-03-22T11:06:48;99371.94;;;17.91;28.97
24620;BME280;12763;55.802;37.404;2024-03-22T11:09:26;99365.78;;;18.46;29.12
24620;BME280;12763;55.802;37.404;2024-03-22T11:11:55;99364.56;;;18.22;29.69
24620;BME280;12763;55.802;37.404;2024-03-22T11:14:22;99365.06;;;18.81;29.40
24620;BME280;12763;55.802;37.404;2024-03-22T11:16:51;99357.50;;;18.76;28.66
24620;BME280;12763;55.802;37.404;2024-03-22T11:19:18;99364.75;;;20.09;27.99
24620;BME280;12763;55.802;37.404;2024-03-22T11:21:44;99334.78;;;17.86;28.21
24620;BME280;12763;55.802;37.404;2024-03-22T11:24:10;99349.53;;;18.38;27.90
24620;BME280;12763;55.802;37.404;2024-03-22T11:26:37;99343.59;;;19.52;27.39
24620;BME280;12763;55.802;37.404;2024-03-22T11:29:04;99342.44;;;19.78;27.01
24620;BME280;12763;55.802;37.404;2024-03-22T11:31:31;99329.31;;;20.48;26.58
24620;BME280;12763;55.802;37.404;2024-03-22T11:33:57;99314.78;;;21.24;26.27
24620;BME280;12763;55.802;37.404;2024-03-22T11:36:23;99315.38;;;21.26;25.89
24620;BME280;12763;55.802;37.404;2024-03-22T11:38:49;99308.84;;;20.91;25.58
24620;BME280;12763;55.802;37.404;2024-03-22T11:41:18;99309.94;;;20.57;26.01
24620;BME280;12763;55.802;37.404;2024-03-22T11:43:46;99303.28;;;20.86;25.83
24620;BME280;12763;55.802;37.404;2024-03-22T11:46:14;99298.47;;;19.84;26.20
24620;BME280;12763;55.802;37.404;2024-03-22T11:48:41;99285.25;;;20.97;25.36
24620;BME280;12763;55.802;37.404;2024-03-22T11:51:08;99289.94;;;21.12;25.23
24620;BME280;12763;55.802;37.404;2024-03-22T11:53:37;99288.28;;;20.67;24.46
24620;BME280;12763;55.802;37.404;2024-03-22T11:56:05;99277.88;;;20.24;24.93
24620;BME280;12763;55.802;37.404;2024-03-22T11:58:33;99269.94;;;20.41;24.19
24620;BME280;12763;55.802;37.404;2024-03-22T12:00:59;99265.47;;;20.40;24.43
24620;BME280;12763;55.802;37.404;2024-03-22T12:03:25;99277.59;;;20.20;24.09
24620;BME280;12763;55.802;37.404;2024-03-22T12:05:54;99273.50;;;19.98;23.94
24620;BME280;12763;55.802;37.404;2024-03-22T12:08:20;99257.09;;;20.35;23.43
24620;BME280;12763;55.802;37.404;2024-03-22T12:10:46;99243.72;;;20.17;23.58
24620;BME280;12763;55.802;37.404;2024-03-22T12:13:12;99237.13;;;19.92;23.86
24620;BME280;12763;55.802;37.404;2024-03-22T12:15:38;99232.97;;;20.39;23.99
24620;BME280;12763;55.802;37.404;2024-03-22T12:18:04;99226.06;;;20.16;24.08
24620;BME280;12763;55.802;37.404;2024-03-22T12:20:30;99230.81;;;21.03;23.74
24620;BME280;12763;55.802;37.404;2024-03-22T12:22:56;99226.28;;;20.74;23.39
24620;BME280;12763;55.802;37.404;2024-03-22T12:25:22;99232.94;;;20.44;23.48
24620;BME280;12763;55.802;37.404;2024-03-22T12:28:07;99224.91;;;20.32;23.35
24620;BME280;12763;55.802;37.404;2024-03-22T12:30:32;99211.22;;;20.26;22.96
24620;BME280;12763;55.802;37.404;2024-03-22T12:32:59;99214.03;;;20.16;23.39
24620;BME280;12763;55.802;37.404;2024-03-22T12:35:25;99206.25;;;20.08;22.99
24620;BME280;12763;55.802;37.404;2024-03-22T12:37:51;99186.72;;;19.92;23.39
24620;BME280;12763;55.802;37.404;2024-03-22T12:40:17;99199.69;;;20.22;23.27
24620;BME280;12763;55.802;37.404;2024-03-22T12:42:44;99190.94;;;21.12;22.83
24620;BME280;12763;55.802;37.404;2024-03-22T12:45:10;99188.50;;;21.52;22.38
24620;BME280;12763;55.802;37.404;2024-03-22T12:47:36;99189.00;;;21.59;22.44
24620;BME280;12763;55.802;37.404;2024-03-22T12:50:04;99186.94;;;21.18;22.41
24620;BME280;12763;55.802;37.404;2024-03-22T12:52:31;99182.50;;;20.78;22.74
24620;BME280;12763;55.802;37.404;2024-03-22T12:54:57;99179.91;;;20.86;22.71